createdAt,value
2019-04-07T00:01:07.940Z,99.90
2019-04-07T00:03:37.816Z,99.90
2019-04-07T00:06:08.138Z,99.90
2019-04-07T00:08:37.820Z,99.90
2019-04-07T00:11:07.375Z,99.90
2019-04-07T00:13:36.852Z,99.90
2019-04-07T00:16:06.388Z,99.90
2019-04-07T00:18:35.872Z,99.90
2019-04-07T00:21:06.161Z,99.90
2019-04-07T00:23:35.924Z,99.90
2019-04-07T00:26:06.081Z,99.90
2019-04-07T00:28:35.928Z,99.90
2019-04-07T00:31:05.485Z,99.90
2019-04-07T00:33:35.137Z,99.90
2019-04-07T00:36:04.614Z,99.90
2019-04-07T00:38:34.698Z,99.90
2019-04-07T00:41:04.664Z,99.90
2019-04-07T00:43:34.315Z,99.90
2019-04-07T00:46:04.595Z,99.90
2019-04-07T00:48:34.420Z,99.90
2019-04-07T00:51:04.976Z,99.90
2019-04-07T00:53:35.321Z,99.90
2019-04-07T00:56:05.108Z,99.90
2019-04-07T00:58:34.728Z,99.90
2019-04-07T01:01:05.361Z,99.90
2019-04-07T01:03:35.071Z,99.90
2019-04-07T01:06:24.186Z,99.90
2019-04-07T01:08:54.135Z,99.90
2019-04-07T01:11:24.285Z,99.90
2019-04-07T01:13:53.972Z,99.90
2019-04-07T01:16:23.569Z,99.90
2019-04-07T01:18:53.501Z,99.90
2019-04-07T01:21:23.742Z,99.90
2019-04-07T01:23:53.450Z,99.90
2019-04-07T01:26:23.059Z,99.90
2019-04-07T01:28:54.467Z,99.90
2019-04-07T01:31:24.195Z,99.90
2019-04-07T01:33:54.306Z,99.90
2019-04-07T01:36:24.013Z,99.90
2019-04-07T01:38:53.564Z,99.90
2019-04-07T01:41:27.550Z,99.90
2019-04-07T01:43:58.960Z,99.90
2019-04-07T01:46:32.711Z,99.90
2019-04-07T01:49:15.862Z,99.90
2019-04-07T01:52:03.268Z,99.90
2019-04-07T01:54:34.551Z,99.90
2019-04-07T01:57:05.931Z,99.90
2019-04-07T01:59:39.991Z,99.90
2019-04-07T02:02:17.476Z,99.90
2019-04-07T02:04:58.032Z,99.90
2019-04-07T02:07:29.501Z,99.90
2019-04-07T02:10:00.927Z,99.90
2019-04-07T02:12:38.004Z,99.90
2019-04-07T02:15:26.798Z,99.90
2019-04-07T02:17:59.341Z,99.90
2019-04-07T02:21:05.428Z,99.90
2019-04-07T02:23:42.155Z,99.90
2019-04-07T02:26:25.276Z,99.90
2019-04-07T02:29:05.872Z,99.90
2019-04-07T02:31:52.862Z,99.90
2019-04-07T02:34:24.021Z,99.90
2019-04-07T02:37:13.978Z,99.90
2019-04-07T02:39:46.346Z,99.90
2019-04-07T02:42:27.152Z,99.90
2019-04-07T02:45:04.065Z,99.90
2019-04-07T02:47:41.843Z,99.90
2019-04-07T02:50:19.339Z,99.90
2019-04-07T02:52:57.216Z,99.90
2019-04-07T02:55:31.148Z,99.90
2019-04-07T02:58:08.723Z,99.90
2019-04-07T03:00:41.168Z,99.90
2019-04-07T03:03:22.504Z,99.90
2019-04-07T03:05:57.037Z,99.90
2019-04-07T03:08:37.815Z,99.90
2019-04-07T03:11:22.413Z,99.90
2019-04-07T03:13:54.392Z,99.90
2019-04-07T03:16:37.714Z,99.90
2019-04-07T03:19:15.244Z,99.90
2019-04-07T03:22:02.928Z,99.90
2019-04-07T03:24:37.067Z,99.90
2019-04-07T03:27:17.838Z,99.90
2019-04-07T03:29:53.355Z,99.90
2019-04-07T03:32:28.124Z,99.90
2019-04-07T03:35:13.263Z,99.90
2019-04-07T03:38:02.024Z,99.90
2019-04-07T03:40:49.933Z,99.90
2019-04-07T03:43:36.151Z,99.90
2019-04-07T03:46:08.089Z,99.90
2019-04-07T03:48:51.756Z,99.90
2019-04-07T03:51:26.394Z,99.90
2019-04-07T03:54:15.023Z,99.90
2019-04-07T03:56:58.809Z,99.90
2019-04-07T03:59:45.148Z,99.90
2019-04-07T04:02:34.718Z,99.90
2019-04-07T04:05:15.794Z,99.90
2019-04-07T04:07:50.108Z,99.90
2019-04-07T04:10:24.361Z,99.90
2019-04-07T04:12:56.477Z,99.90
2019-04-07T04:15:34.290Z,99.90
2019-04-07T04:18:04.040Z,99.90
2019-04-07T04:20:34.572Z,99.90
2019-04-07T04:23:04.568Z,99.90
2019-04-07T04:25:34.159Z,99.90
2019-04-07T04:28:04.745Z,99.90
2019-04-07T04:30:34.795Z,99.90
2019-04-07T04:33:04.422Z,99.90
2019-04-07T04:35:34.051Z,99.90
2019-04-07T04:38:15.870Z,99.90
2019-04-07T04:40:45.962Z,99.90
2019-04-07T04:43:15.714Z,99.90
2019-04-07T04:45:48.586Z,99.90
2019-04-07T04:48:18.111Z,99.90
2019-04-07T04:50:47.683Z,99.90
2019-04-07T04:53:18.314Z,99.90
2019-04-07T04:55:48.013Z,99.90
2019-04-07T04:58:17.588Z,99.90
2019-04-07T05:00:48.438Z,99.90
2019-04-07T05:03:18.261Z,99.90
2019-04-07T05:05:47.989Z,99.90
2019-04-07T05:08:17.650Z,99.90
2019-04-07T05:10:47.392Z,99.90
2019-04-07T05:13:17.030Z,99.90
2019-04-07T05:15:46.847Z,99.90
2019-04-07T05:18:17.422Z,99.90
2019-04-07T05:20:47.635Z,99.90
2019-04-07T05:23:18.127Z,99.90
2019-04-07T05:25:48.115Z,99.90
2019-04-07T05:28:17.730Z,99.90
2019-04-07T05:30:47.991Z,99.90
2019-04-07T05:33:17.604Z,99.90
2019-04-07T05:35:47.150Z,99.90
2019-04-07T05:38:16.720Z,99.90
2019-04-07T05:40:46.324Z,99.90
2019-04-07T05:43:16.119Z,99.90
2019-04-07T05:45:46.238Z,99.90
2019-04-07T05:48:19.292Z,99.90
2019-04-07T05:50:48.721Z,99.90
2019-04-07T05:53:19.022Z,99.90
2019-04-07T05:55:49.165Z,99.90
2019-04-07T05:58:18.908Z,99.90
2019-04-07T06:00:49.411Z,99.90
2019-04-07T06:03:20.427Z,99.90
2019-04-07T06:05:51.155Z,99.90
2019-04-07T06:08:29.532Z,99.90
2019-04-07T06:10:56.882Z,98.80
2019-04-07T06:13:23.855Z,97.40
2019-04-07T06:15:53.992Z,95.20
2019-04-07T06:18:23.954Z,94.10
2019-04-07T06:20:53.766Z,94.10
2019-04-07T06:23:25.822Z,92.50
2019-04-07T06:25:57.299Z,91.00
2019-04-07T06:28:26.810Z,88.30
2019-04-07T06:30:59.352Z,84.20
2019-04-07T06:33:28.487Z,80.50
2019-04-07T06:35:58.261Z,81.30
2019-04-07T06:38:33.686Z,78.00
2019-04-07T06:41:01.780Z,74.80
2019-04-07T06:43:30.493Z,72.70
2019-04-07T06:46:01.767Z,69.10
2019-04-07T06:48:32.051Z,69.00
2019-04-07T06:51:03.905Z,68.60
2019-04-07T06:53:38.288Z,65.20
2019-04-07T06:56:25.887Z,64.00
2019-04-07T06:59:05.903Z,66.30
2019-04-07T07:01:49.323Z,65.30
2019-04-07T07:04:26.639Z,64.00
2019-04-07T07:07:07.315Z,66.10
2019-04-07T07:09:38.979Z,62.90
2019-04-07T07:12:24.701Z,62.40
2019-04-07T07:15:09.141Z,61.50
2019-04-07T07:17:41.073Z,60.00
2019-04-07T07:20:12.459Z,59.30
2019-04-07T07:22:50.693Z,59.40
2019-04-07T07:25:20.477Z,60.90
2019-04-07T07:27:50.110Z,61.90
2019-04-07T07:30:20.532Z,64.60
2019-04-07T07:32:51.717Z,68.40
2019-04-07T07:35:21.341Z,71.30
2019-04-07T07:37:51.011Z,74.00
2019-04-07T07:40:21.111Z,76.00
2019-04-07T07:42:51.082Z,78.20
2019-04-07T07:45:20.735Z,79.90
2019-04-07T07:47:53.766Z,83.70
2019-04-07T07:50:21.551Z,86.80
2019-04-07T07:52:53.469Z,89.60
2019-04-07T07:55:23.003Z,91.30
2019-04-07T07:57:56.465Z,92.40
2019-04-07T08:00:24.552Z,93.40
2019-04-07T08:02:54.705Z,94.10
2019-04-07T08:05:24.838Z,94.80
2019-04-07T08:07:55.175Z,94.90
2019-04-07T08:10:25.354Z,94.20
2019-04-07T08:12:56.335Z,93.90
2019-04-07T08:15:30.998Z,94.70
2019-04-07T08:17:57.412Z,94.70
2019-04-07T08:20:27.455Z,94.70
2019-04-07T08:22:57.196Z,95.20
2019-04-07T08:25:26.742Z,96.20
2019-04-07T08:27:57.283Z,96.30
2019-04-07T08:30:27.597Z,97.00
2019-04-07T08:33:00.282Z,97.30
2019-04-07T08:35:29.810Z,97.10
2019-04-07T08:37:59.764Z,97.70
2019-04-07T08:40:29.559Z,97.70
2019-04-07T08:42:59.439Z,98.20
2019-04-07T08:45:31.664Z,97.80
2019-04-07T08:48:00.817Z,98.10
2019-04-07T08:50:31.026Z,98.40
2019-04-07T08:53:00.876Z,98.50
2019-04-07T08:55:30.930Z,99.00
2019-04-07T08:58:02.492Z,98.80
2019-04-07T09:00:33.622Z,99.00
2019-04-07T09:03:10.566Z,99.00
2019-04-07T09:05:34.315Z,99.90
2019-04-07T09:08:06.045Z,99.90
2019-04-07T09:10:39.583Z,99.90
2019-04-07T09:13:10.384Z,99.60
2019-04-07T09:15:59.008Z,99.90
2019-04-07T09:18:30.788Z,99.90
2019-04-07T09:21:20.675Z,99.30
2019-04-07T09:24:11.424Z,99.50
2019-04-07T09:26:45.648Z,98.80
2019-04-07T09:29:19.882Z,97.50
2019-04-07T09:31:54.229Z,97.80
2019-04-07T09:34:28.197Z,97.00
2019-04-07T09:37:18.583Z,97.00
2019-04-07T09:40:09.238Z,97.60
2019-04-07T09:42:50.732Z,98.00
2019-04-07T09:45:28.797Z,97.60
2019-04-07T09:48:00.635Z,97.60
2019-04-07T09:50:48.825Z,96.90
2019-04-07T09:53:25.837Z,97.00
2019-04-07T09:56:13.803Z,97.30
2019-04-07T09:58:57.008Z,97.40
2019-04-07T10:01:31.853Z,97.20
2019-04-07T10:04:19.833Z,96.90
2019-04-07T10:06:51.136Z,96.60
2019-04-07T10:09:37.981Z,95.80
2019-04-07T10:12:16.159Z,95.30
2019-04-07T10:14:57.668Z,95.10
2019-04-07T10:17:35.620Z,94.40
2019-04-07T10:20:11.163Z,94.20
2019-04-07T10:22:51.808Z,94.50
2019-04-07T10:25:33.222Z,94.90
2019-04-07T10:28:17.611Z,95.20
2019-04-07T10:30:49.410Z,95.40
2019-04-07T10:33:27.209Z,95.40
2019-04-07T10:36:04.911Z,94.80
2019-04-07T10:38:39.106Z,94.80
2019-04-07T10:41:27.225Z,94.70
2019-04-07T10:43:59.061Z,94.50
2019-04-07T10:46:36.257Z,94.30
2019-04-07T10:49:11.367Z,94.20
2019-04-07T10:51:48.896Z,94.10
2019-04-07T10:54:37.069Z,93.70
2019-04-07T10:57:14.521Z,92.90
2019-04-07T10:59:46.467Z,93.30
2019-04-07T11:02:23.765Z,93.20
2019-04-07T11:05:04.074Z,93.00
2019-04-07T11:07:38.397Z,92.90
2019-04-07T11:10:30.622Z,93.30
2019-04-07T11:13:08.682Z,91.80
2019-04-07T11:15:44.400Z,91.20
2019-04-07T11:18:16.486Z,89.40
2019-04-07T11:20:57.223Z,90.00
2019-04-07T11:23:31.983Z,90.00
2019-04-07T11:26:09.032Z,87.80
2019-04-07T11:28:40.208Z,87.80
2019-04-07T11:31:11.399Z,86.50
2019-04-07T11:33:45.540Z,85.00
2019-04-07T11:36:28.883Z,84.60
2019-04-07T11:39:09.065Z,84.20
2019-04-07T11:41:57.377Z,84.80
2019-04-07T11:44:45.591Z,86.50
2019-04-07T11:47:26.150Z,88.00
2019-04-07T11:49:58.150Z,88.60
2019-04-07T11:52:29.823Z,86.50
2019-04-07T11:55:04.074Z,86.90
2019-04-07T11:57:35.446Z,83.40
2019-04-07T12:00:09.677Z,84.50
2019-04-07T12:02:56.053Z,86.00
2019-04-07T12:05:42.571Z,85.90
2019-04-07T12:08:16.516Z,87.60
2019-04-07T12:10:58.652Z,88.50
2019-04-07T12:13:29.715Z,85.30
2019-04-07T12:16:03.941Z,84.00
2019-04-07T12:18:35.300Z,85.70
2019-04-07T12:21:20.763Z,87.20
2019-04-07T12:23:52.765Z,85.80
2019-04-07T12:26:42.427Z,84.30
2019-04-07T12:29:19.325Z,84.50
2019-04-07T12:31:51.044Z,84.70
2019-04-07T12:34:34.487Z,83.50
2019-04-07T12:37:06.880Z,83.10
2019-04-07T12:39:55.505Z,85.90
2019-04-07T12:42:26.835Z,86.10
2019-04-07T12:45:07.939Z,87.10
2019-04-07T12:47:55.329Z,84.10
2019-04-07T12:50:43.640Z,82.60
2019-04-07T12:53:17.599Z,81.80
2019-04-07T12:56:04.744Z,81.60
2019-04-07T12:58:52.682Z,83.60
2019-04-07T13:01:24.946Z,83.80
2019-04-07T13:04:13.241Z,83.20
2019-04-07T13:07:01.309Z,82.00
2019-04-07T13:09:41.886Z,82.60
2019-04-07T13:12:28.979Z,82.70
2019-04-07T13:15:19.372Z,82.10
2019-04-07T13:18:08.535Z,80.30
2019-04-07T13:20:40.759Z,77.70
2019-04-07T13:23:24.231Z,76.20
2019-04-07T13:25:56.651Z,77.90
2019-04-07T13:28:37.204Z,77.80
2019-04-07T13:31:15.600Z,77.20
2019-04-07T13:34:04.263Z,76.10
2019-04-07T13:36:39.378Z,76.50
2019-04-07T13:39:12.021Z,75.00
2019-04-07T13:41:50.435Z,75.80
2019-04-07T13:44:19.721Z,75.50
2019-04-07T13:47:07.327Z,76.50
2019-04-07T13:49:39.562Z,77.10
2019-04-07T13:52:11.773Z,76.10
2019-04-07T13:54:59.065Z,74.50
2019-04-07T13:57:33.843Z,72.90
2019-04-07T14:00:12.985Z,72.90
2019-04-07T14:03:01.462Z,72.70
2019-04-07T14:05:38.863Z,72.50
2019-04-07T14:08:24.209Z,72.60
2019-04-07T14:11:09.078Z,72.70
2019-04-07T14:13:56.577Z,72.10
2019-04-07T14:16:37.667Z,73.00
2019-04-07T14:19:09.136Z,72.50
2019-04-07T14:21:46.262Z,72.70
2019-04-07T14:24:17.429Z,72.60
2019-04-07T14:27:00.885Z,72.60
2019-04-07T14:29:49.979Z,69.90
2019-04-07T14:32:21.979Z,70.40
2019-04-07T14:35:10.456Z,70.70
2019-04-07T14:37:41.933Z,71.20
2019-04-07T14:40:30.153Z,71.50
2019-04-07T14:43:10.615Z,72.50
2019-04-07T14:45:51.491Z,72.30
2019-04-07T14:48:38.043Z,72.50
2019-04-07T14:51:16.243Z,73.70
2019-04-07T14:53:59.973Z,70.70
2019-04-07T14:56:47.770Z,68.30
2019-04-07T14:59:28.475Z,68.50
2019-04-07T15:02:00.822Z,69.90
2019-04-07T15:04:31.775Z,70.00
2019-04-07T15:07:10.365Z,69.70
2019-04-07T15:09:51.339Z,69.60
2019-04-07T15:12:25.075Z,69.60
2019-04-07T15:14:54.624Z,67.90
2019-04-07T15:17:24.364Z,67.20
2019-04-07T15:19:54.103Z,68.30
2019-04-07T15:22:28.863Z,68.30
2019-04-07T15:24:54.902Z,66.60
2019-04-07T15:27:25.171Z,65.80
2019-04-07T15:29:56.633Z,65.70
2019-04-07T15:32:29.012Z,65.40
2019-04-07T15:34:57.875Z,64.30
2019-04-07T15:37:28.184Z,63.30
2019-04-07T15:40:00.989Z,64.00
2019-04-07T15:42:37.712Z,65.60
2019-04-07T15:45:01.106Z,66.50
2019-04-07T15:47:30.997Z,64.80
2019-04-07T15:50:00.722Z,65.00
2019-04-07T15:52:31.642Z,65.70
2019-04-07T15:55:02.030Z,65.00
2019-04-07T15:57:32.452Z,64.90
2019-04-07T16:00:03.952Z,64.60
2019-04-07T16:02:34.536Z,64.60
2019-04-07T16:05:06.806Z,64.70
2019-04-07T16:07:36.437Z,63.90
2019-04-07T16:10:08.024Z,63.80
2019-04-07T16:12:44.087Z,63.00
2019-04-07T16:15:09.746Z,63.70
2019-04-07T16:17:40.196Z,63.40
2019-04-07T16:20:20.678Z,63.70
2019-04-07T16:22:45.788Z,64.20
2019-04-07T16:25:15.485Z,63.50
2019-04-07T16:27:45.731Z,64.00
2019-04-07T16:30:18.007Z,63.90
2019-04-07T16:32:48.113Z,63.50
2019-04-07T16:35:18.267Z,63.20
2019-04-07T16:37:48.176Z,63.00
2019-04-07T16:40:19.634Z,63.20
2019-04-07T16:43:05.474Z,62.90
2019-04-07T16:45:21.303Z,63.00
2019-04-07T16:47:51.195Z,63.00
2019-04-07T16:50:21.511Z,63.20
2019-04-07T16:52:51.249Z,63.70
2019-04-07T16:55:35.226Z,62.80
2019-04-07T16:58:06.315Z,62.70
2019-04-07T17:00:36.157Z,62.80
2019-04-07T17:03:07.848Z,63.40
2019-04-07T17:05:37.792Z,63.20
2019-04-07T17:08:08.482Z,63.30
2019-04-07T17:10:39.052Z,63.60
2019-04-07T17:13:17.848Z,63.20
2019-04-07T17:15:41.655Z,63.30
2019-04-07T17:18:31.119Z,63.90
2019-04-07T17:21:00.712Z,63.70
2019-04-07T17:23:30.393Z,64.10
2019-04-07T17:26:03.207Z,64.10
2019-04-07T17:28:32.489Z,64.80
2019-04-07T17:31:02.740Z,64.90
2019-04-07T17:33:35.182Z,66.30
2019-04-07T17:36:04.191Z,67.20
2019-04-07T17:38:41.199Z,67.60
2019-04-07T17:41:14.996Z,68.10
2019-04-07T17:43:54.389Z,68.40
2019-04-07T17:46:39.598Z,68.80
2019-04-07T17:49:25.952Z,69.10
2019-04-07T17:52:12.770Z,69.50
2019-04-07T17:54:54.343Z,69.90
2019-04-07T17:57:38.276Z,70.10
2019-04-07T18:00:21.663Z,70.70
2019-04-07T18:03:10.263Z,70.90
2019-04-07T18:05:50.785Z,71.30
2019-04-07T18:08:25.183Z,71.50
2019-04-07T18:11:00.124Z,71.70
2019-04-07T18:13:49.717Z,72.10
2019-04-07T18:16:34.185Z,72.20
2019-04-07T18:19:21.968Z,72.50
2019-04-07T18:21:56.827Z,72.90
2019-04-07T18:24:44.942Z,73.30
2019-04-07T18:27:25.409Z,73.70
2019-04-07T18:30:05.550Z,74.40
2019-04-07T18:32:49.434Z,75.40
2019-04-07T18:35:32.793Z,76.00
2019-04-07T18:38:21.763Z,76.40
2019-04-07T18:41:09.404Z,76.80
2019-04-07T18:43:49.124Z,77.30
2019-04-07T18:46:13.080Z,77.70
2019-04-07T18:48:50.184Z,77.90
2019-04-07T18:51:25.237Z,78.30
2019-04-07T18:53:59.705Z,78.60
2019-04-07T18:56:29.708Z,79.30
2019-04-07T18:59:13.293Z,79.20
2019-04-07T19:01:47.515Z,79.60
2019-04-07T19:04:25.147Z,80.00
2019-04-07T19:07:10.852Z,80.40
2019-04-07T19:09:51.944Z,81.70
2019-04-07T19:12:24.789Z,81.30
2019-04-07T19:15:03.966Z,81.50
2019-04-07T19:17:41.131Z,81.20
2019-04-07T19:20:27.515Z,80.70
2019-04-07T19:23:15.287Z,80.60
2019-04-07T19:25:51.119Z,81.30
2019-04-07T19:28:34.130Z,81.50
2019-04-07T19:31:22.447Z,81.90
2019-04-07T19:34:06.359Z,81.90
2019-04-07T19:36:45.948Z,81.80
2019-04-07T19:39:18.756Z,81.80
2019-04-07T19:42:07.472Z,82.30
2019-04-07T19:44:51.082Z,82.60
2019-04-07T19:47:36.392Z,82.60
2019-04-07T19:50:17.304Z,83.20
2019-04-07T19:52:49.807Z,83.60
2019-04-07T19:55:26.236Z,83.60
2019-04-07T19:58:03.021Z,83.80
2019-04-07T20:00:38.091Z,83.90
2019-04-07T20:03:24.459Z,84.50
2019-04-07T20:06:12.968Z,83.90
2019-04-07T20:09:00.097Z,84.00
2019-04-07T20:11:38.638Z,84.10
2019-04-07T20:14:14.496Z,84.30
2019-04-07T20:16:49.204Z,84.30
2019-04-07T20:19:38.181Z,84.60
2019-04-07T20:22:17.816Z,84.30
2019-04-07T20:25:08.721Z,84.20
2019-04-07T20:27:37.757Z,83.90
2019-04-07T20:30:21.632Z,83.70
2019-04-07T20:33:09.877Z,83.90
2019-04-07T20:35:57.847Z,84.00
2019-04-07T20:38:46.419Z,84.30
2019-04-07T20:41:23.984Z,84.50
2019-04-07T20:44:11.220Z,85.00
2019-04-07T20:46:48.147Z,85.00
2019-04-07T20:49:28.247Z,85.00
2019-04-07T20:52:02.132Z,85.30
2019-04-07T20:54:48.805Z,85.40
2019-04-07T20:57:23.849Z,85.70
2019-04-07T21:00:02.400Z,85.70
2019-04-07T21:02:41.285Z,86.20
2019-04-07T21:05:12.651Z,86.40
2019-04-07T21:08:02.364Z,86.50
2019-04-07T21:10:37.079Z,87.00
2019-04-07T21:13:17.386Z,87.40
2019-04-07T21:15:54.135Z,87.70
2019-04-07T21:18:26.860Z,88.10
2019-04-07T21:21:04.570Z,88.10
2019-04-07T21:23:46.827Z,88.20
2019-04-07T21:26:18.379Z,88.50
2019-04-07T21:28:50.361Z,88.80
2019-04-07T21:31:24.775Z,89.10
2019-04-07T21:34:12.432Z,89.40
2019-04-07T21:36:46.432Z,89.80
2019-04-07T21:39:20.492Z,90.10
2019-04-07T21:41:54.159Z,90.40
2019-04-07T21:44:40.719Z,90.30
2019-04-07T21:47:14.899Z,90.30
2019-04-07T21:49:46.231Z,90.70
2019-04-07T21:52:22.982Z,90.80
2019-04-07T21:55:11.527Z,91.30
2019-04-07T21:58:00.919Z,91.00
2019-04-07T22:00:47.692Z,91.30
2019-04-07T22:03:35.230Z,91.50
2019-04-07T22:06:13.227Z,91.60
2019-04-07T22:08:45.857Z,91.90
2019-04-07T22:11:15.723Z,92.20
2019-04-07T22:13:45.204Z,92.40
2019-04-07T22:16:14.735Z,92.50
2019-04-07T22:18:44.971Z,92.70
2019-04-07T22:21:14.947Z,92.80
2019-04-07T22:23:44.565Z,92.80
2019-04-07T22:26:17.623Z,93.00
2019-04-07T22:28:45.276Z,93.30
2019-04-07T22:31:16.895Z,93.50
2019-04-07T22:33:46.664Z,93.60
2019-04-07T22:36:16.730Z,93.60
2019-04-07T22:38:46.635Z,93.90
2019-04-07T22:41:16.371Z,93.90
2019-04-07T22:43:49.408Z,94.10
2019-04-07T22:46:21.899Z,94.00
2019-04-07T22:48:48.311Z,94.10
2019-04-07T22:51:18.802Z,94.40
2019-04-07T22:53:48.412Z,94.70
2019-04-07T22:56:18.136Z,95.20
2019-04-07T22:58:48.580Z,95.50
2019-04-07T23:01:18.653Z,95.40
2019-04-07T23:03:48.419Z,95.50
2019-04-07T23:06:18.976Z,95.70
2019-04-07T23:08:49.043Z,95.90
2019-04-07T23:11:18.663Z,96.00
2019-04-07T23:13:49.239Z,96.20
2019-04-07T23:16:20.232Z,96.50
2019-04-07T23:18:50.113Z,96.70
2019-04-07T23:21:27.912Z,96.70
2019-04-07T23:23:57.792Z,97.10
2019-04-07T23:26:27.570Z,97.10
2019-04-07T23:28:57.204Z,97.20
2019-04-07T23:31:27.865Z,97.20
2019-04-07T23:33:58.586Z,97.20
2019-04-07T23:36:28.419Z,97.20
2019-04-07T23:38:58.349Z,97.40
2019-04-07T23:41:27.891Z,97.80
2019-04-07T23:43:57.423Z,98.10
2019-04-07T23:46:28.171Z,98.20
2019-04-07T23:48:58.165Z,98.30
2019-04-07T23:51:28.768Z,98.10
2019-04-07T23:54:12.240Z,98.20
2019-04-07T23:56:43.477Z,98.40
2019-04-07T23:59:14.616Z,98.40
